Time;durP1;ratioP1;P1;durP2;ratioP2;P2;SDS_P1;SDS_P2;PMS_P1;PMS_P2;Temp;Humidity;BMP_temperature;BMP_pressure;BME280_temperature;BME280_humidity;BME280_pressure;Samples;Min_cycle;Max_cycle;Signal;HPM_P1;HPM_P2
2021/11/17 02:27:20;;;;;;;5.60;2.42;;;12.00;85.90;;;;;;4994765;28;20108;-80
2021/11/17 02:30:01;;;;;;;5.97;2.55;;;12.00;85.90;;;;;;4937893;28;20154;-82
2021/11/17 02:33:08;;;;;;;6.10;2.65;;;12.00;85.80;;;;;;5009638;28;20227;-80
2021/11/17 02:35:43;;;;;;;6.78;2.65;;;11.90;85.70;;;;;;5027107;28;20033;-80
2021/11/17 02:38:34;;;;;;;4.10;2.72;;;11.90;85.60;;;;;;5010657;28;20690;-80
2021/11/17 02:41:32;;;;;;;6.10;2.20;;;11.90;85.60;;;;;;5010545;28;20037;-79
2021/11/17 02:44:05;;;;;;;5.20;2.78;;;11.80;85.90;;;;;;4991416;28;20046;-80
2021/11/17 02:46:55;;;;;;;5.73;2.70;;;11.80;85.40;;;;;;5014141;28;20050;-79
2021/11/17 02:49:43;;;;;;;5.30;2.10;;;11.80;85.40;;;;;;5010976;28;20049;-80
2021/11/17 02:52:30;;;;;;;4.63;2.90;;;11.80;85.40;;;;;;4992882;28;20466;-80
2021/11/17 02:55:26;;;;;;;3.75;2.03;;;11.70;85.10;;;;;;4977405;28;20136;-81
2021/11/17 02:58:13;;;;;;;6.30;2.08;;;11.70;85.10;;;;;;4976899;28;20102;-80
2021/11/17 03:01:01;;;;;;;6.78;2.67;;;11.60;84.90;;;;;;5010803;28;20040;-79
2021/11/17 03:03:45;;;;;;;6.35;2.45;;;11.60;84.90;;;;;;5010940;28;20038;-80
2021/11/17 03:06:20;;;;;;;6.25;2.40;;;11.60;84.90;;;;;;4993244;28;20034;-79
2021/11/17 03:08:56;;;;;;;3.45;1.90;;;11.50;84.70;;;;;;5009500;28;20064;-81
2021/11/17 03:11:28;;;;;;;5.75;2.08;;;11.40;84.50;;;;;;4993298;28;20128;-81
2021/11/17 03:14:21;;;;;;;5.10;2.20;;;11.40;84.50;;;;;;5010546;28;20026;-80
2021/11/17 03:16:55;;;;;;;4.95;2.78;;;11.40;84.50;;;;;;4976726;28;20432;-80
2021/11/17 03:19:38;;;;;;;4.15;2.20;;;11.30;84.40;;;;;;5009261;28;20056;-79
2021/11/17 03:22:25;;;;;;;3.45;2.58;;;11.30;84.40;;;;;;4992668;28;20030;-79
2021/11/17 03:25:33;;;;;;;5.65;1.98;;;11.30;84.30;;;;;;4993337;28;20109;-79
2021/11/17 03:28:14;;;;;;;6.60;2.35;;;11.20;84.10;;;;;;4985991;28;20485;-80
2021/11/17 03:31:17;;;;;;;4.38;2.05;;;11.20;84.20;;;;;;5010337;28;20067;-80
2021/11/17 03:34:17;;;;;;;4.40;2.33;;;11.10;84.00;;;;;;5010909;28;20033;-79
2021/11/17 03:37:16;;;;;;;3.63;1.85;;;11.10;84.50;;;;;;4993287;28;20026;-77
2021/11/17 03:39:47;;;;;;;8.68;2.35;;;11.10;83.90;;;;;;4992474;28;20046;-78
2021/11/17 03:42:16;;;;;;;5.93;2.00;;;11.00;83.80;;;;;;5010535;28;20477;-77
2021/11/17 03:45:07;;;;;;;3.88;2.15;;;11.00;83.80;;;;;;5010698;28;20069;-77
2021/11/17 03:48:13;;;;;;;3.63;2.33;;;11.00;83.80;;;;;;5011343;28;20046;-78
2021/11/17 03:50:53;;;;;;;7.28;3.10;;;10.90;83.70;;;;;;4983348;28;20037;-77
2021/11/17 03:53:44;;;;;;;5.15;2.10;;;10.90;83.70;;;;;;4995892;28;20026;-77
2021/11/17 03:57:07;;;;;;;5.38;2.55;;;10.90;83.70;;;;;;4996434;28;20034;-78
2021/11/17 03:59:40;;;;;;;3.03;2.08;;;10.80;83.50;;;;;;4917645;29;20068;-78
2021/11/17 04:02:24;;;;;;;4.32;2.15;;;10.80;83.50;;;;;;4917561;29;20040;-78
2021/11/17 04:05:24;;;;;;;5.55;1.95;;;10.80;83.50;;;;;;4978067;28;20042;-79
2021/11/17 04:08:10;;;;;;;4.47;2.10;;;10.70;83.30;;;;;;5013666;28;20022;-78
2021/11/17 04:11:14;;;;;;;4.93;2.20;;;10.70;83.40;;;;;;5013627;28;20389;-79
2021/11/17 04:14:09;;;;;;;5.50;2.33;;;10.60;83.20;;;;;;4933494;29;20079;-79
2021/11/17 04:16:35;;;;;;;5.63;2.38;;;10.60;83.20;;;;;;4963398;28;20030;-78
2021/11/17 04:19:16;;;;;;;3.45;2.22;;;10.60;83.30;;;;;;5013045;28;20398;-79
2021/11/17 04:21:57;;;;;;;4.60;2.00;;;10.60;83.30;;;;;;5013106;28;20131;-78
2021/11/17 04:24:50;;;;;;;6.03;2.00;;;10.50;83.10;;;;;;5013543;28;20117;-79
2021/11/17 04:27:47;;;;;;;4.78;1.95;;;10.50;83.20;;;;;;4996044;28;20026;-79
2021/11/17 04:30:33;;;;;;;6.82;2.70;;;10.50;83.10;;;;;;4995921;28;20589;-79
2021/11/17 04:33:01;;;;;;;3.60;1.98;;;10.50;83.10;;;;;;5013067;28;20041;-79
2021/11/17 04:35:37;;;;;;;3.88;2.05;;;10.40;83.00;;;;;;5012024;28;20457;-79
2021/11/17 04:38:30;;;;;;;5.43;2.10;;;10.40;83.00;;;;;;5013048;28;20124;-78
2021/11/17 04:40:59;;;;;;;3.25;1.73;;;10.40;83.00;;;;;;5012066;28;20066;-78
2021/11/17 04:43:40;;;;;;;3.33;1.92;;;10.30;82.90;;;;;;4995396;28;20504;-79
2021/11/17 04:46:45;;;;;;;4.22;2.47;;;10.30;82.90;;;;;;4998934;28;20492;-77
2021/11/17 04:49:23;;;;;;;4.65;2.35;;;10.30;82.90;;;;;;4987392;28;20049;-78
2021/11/17 04:52:37;;;;;;;4.38;1.95;;;10.20;82.70;;;;;;4998340;28;20122;-79
2021/11/17 04:55:36;;;;;;;3.97;2.20;;;10.20;82.60;;;;;;4917609;29;20039;-79
2021/11/17 04:58:18;;;;;;;4.65;2.15;;;10.20;82.60;;;;;;5032606;28;20037;-79
2021/11/17 05:01:22;;;;;;;4.77;2.23;;;10.10;82.50;;;;;;4998151;28;20041;-79
2021/11/17 05:03:48;;;;;;;1.90;1.67;;;10.10;82.50;;;;;;5027742;28;20042;-79
2021/11/17 05:06:26;;;;;;;2.85;1.90;;;10.10;82.50;;;;;;5014984;28;20393;-80
2021/11/17 05:08:55;;;;;;;4.40;2.08;;;10.10;82.50;;;;;;4998317;28;20029;-79
2021/11/17 05:11:27;;;;;;;3.75;2.15;;;10.00;82.40;;;;;;5032523;28;20043;-80
2021/11/17 05:14:11;;;;;;;3.75;1.95;;;10.00;82.40;;;;;;5032127;28;20481;-79
2021/11/17 05:16:52;;;;;;;3.63;1.98;;;10.00;82.40;;;;;;5032213;28;20029;-79
2021/11/17 05:19:34;;;;;;;4.72;2.10;;;10.00;82.40;;;;;;5032084;28;20120;-80
2021/11/17 05:22:18;;;;;;;5.40;2.17;;;9.90;82.30;;;;;;4998576;28;20188;-80
2021/11/17 05:24:50;;;;;;;5.28;2.00;;;9.90;82.30;;;;;;5032244;28;20105;-78
2021/11/17 05:27:40;;;;;;;3.92;2.20;;;9.90;82.40;;;;;;5014266;28;20071;-80
2021/11/17 05:30:44;;;;;;;5.88;2.75;;;9.90;82.40;;;;;;5014559;28;20116;-80
2021/11/17 05:33:37;;;;;;;4.47;2.22;;;9.90;82.50;;;;;;5032510;28;20026;-79
2021/11/17 05:36:16;;;;;;;3.08;2.17;;;9.90;82.50;;;;;;5014115;28;20040;-79
2021/11/17 05:38:54;;;;;;;3.17;1.95;;;9.90;82.50;;;;;;5032168;28;20440;-80
2021/11/17 05:41:47;;;;;;;4.07;2.15;;;9.90;82.60;;;;;;4982933;28;20029;-80
2021/11/17 05:44:29;;;;;;;4.70;2.72;;;9.90;82.60;;;;;;5018621;28;20390;-80
2021/11/17 05:47:13;;;;;;;4.45;1.63;;;9.80;82.50;;;;;;5021554;28;20383;-81
2021/11/17 05:49:51;;;;;;;4.72;2.03;;;9.90;82.70;;;;;;4971886;28;20037;-81
2021/11/17 05:52:38;;;;;;;3.42;1.85;;;9.90;82.60;;;;;;4970958;28;20125;-79
2021/11/17 05:55:36;;;;;;;5.05;2.67;;;9.80;82.50;;;;;;4989219;28;20426;-79
2021/11/17 05:58:23;;;;;;;4.30;1.95;;;9.80;82.50;;;;;;4995595;28;20042;-78
2021/11/17 06:00:58;;;;;;;7.10;2.17;;;9.80;82.50;;;;;;4990488;28;20500;-79
2021/11/17 06:04:16;;;;;;;4.07;1.92;;;9.80;82.50;;;;;;4984901;28;20485;-79
2021/11/17 06:06:41;;;;;;;4.95;1.90;;;9.80;82.50;;;;;;4969164;28;20126;-79
2021/11/17 06:09:07;;;;;;;4.22;2.47;;;9.80;82.50;;;;;;4984785;28;20385;-78
2021/11/17 06:11:39;;;;;;;3.55;2.63;;;9.80;82.50;;;;;;4988743;28;20036;-79
2021/11/17 06:14:08;;;;;;;5.53;2.42;;;9.70;82.30;;;;;;5007045;28;20915;-78
2021/11/17 06:16:41;;;;;;;5.38;2.92;;;9.70;82.30;;;;;;4989247;28;20034;-80
2021/11/17 06:19:08;;;;;;;4.63;2.17;;;9.70;82.30;;;;;;4989018;28;20205;-80
2021/11/17 06:21:35;;;;;;;3.25;1.90;;;9.70;82.40;;;;;;5006684;28;20030;-81
2021/11/17 06:24:05;;;;;;;5.80;2.75;;;9.70;82.30;;;;;;4988535;28;20174;-78
2021/11/17 06:26:37;;;;;;;4.93;2.30;;;9.60;82.20;;;;;;5007054;28;20030;-79
2021/11/17 06:29:23;;;;;;;3.97;2.13;;;9.60;82.70;;;;;;4988308;28;20482;-79
2021/11/17 06:31:52;;;;;;;5.65;3.25;;;9.60;82.20;;;;;;5005941;28;20547;-79
2021/11/17 06:34:46;;;;;;;4.65;2.22;;;9.60;82.20;;;;;;5006311;28;20133;-80
2021/11/17 06:37:15;;;;;;;4.47;2.35;;;9.50;82.00;;;;;;4997799;28;20042;-79
2021/11/17 06:39:44;;;;;;;6.72;2.28;;;9.50;82.00;;;;;;5006538;28;20042;-79
2021/11/17 06:42:14;;;;;;;4.35;2.25;;;9.50;82.00;;;;;;4988923;28;20029;-79
2021/11/17 06:44:41;;;;;;;3.03;1.95;;;9.50;82.00;;;;;;5006601;28;20033;-79
2021/11/17 06:47:07;;;;;;;3.45;2.03;;;9.50;82.00;;;;;;4988837;28;20050;-80
2021/11/17 06:49:34;;;;;;;2.53;2.15;;;9.50;82.00;;;;;;5006005;28;20034;-78
2021/11/17 06:52:01;;;;;;;3.22;2.00;;;9.50;81.90;;;;;;5003624;28;20050;-80
2021/11/17 06:54:28;;;;;;;3.60;2.42;;;9.40;81.80;;;;;;4986319;28;20038;-81
2021/11/17 06:56:54;;;;;;;7.30;2.70;;;9.40;81.80;;;;;;4986752;28;20026;-79
2021/11/17 06:59:20;;;;;;;6.60;3.20;;;9.50;82.30;;;;;;4969248;28;20042;-82
2021/11/17 07:01:46;;;;;;;8.45;2.53;;;9.50;82.60;;;;;;4986342;28;20031;-77
2021/11/17 07:04:13;;;;;;;4.10;2.30;;;9.50;82.60;;;;;;4986977;28;20034;-78
2021/11/17 07:06:39;;;;;;;5.03;2.85;;;9.50;82.60;;;;;;4969595;28;20402;-81
2021/11/17 07:09:08;;;;;;;4.90;2.90;;;9.60;82.80;;;;;;4969173;28;20049;-81
2021/11/17 07:11:37;;;;;;;5.88;2.60;;;9.50;82.60;;;;;;4995293;28;20041;-84
2021/11/17 07:14:11;;;;;;;5.47;2.65;;;9.50;82.60;;;;;;5005412;28;20065;-82
2021/11/17 07:16:39;;;;;;;4.35;2.50;;;9.60;82.90;;;;;;5006160;28;20053;-80
2021/11/17 07:19:09;;;;;;;4.70;2.53;;;9.50;82.80;;;;;;5006116;28;20046;-79
2021/11/17 07:21:38;;;;;;;6.10;2.28;;;9.50;82.80;;;;;;4972464;28;20037;-81
2021/11/17 07:24:07;;;;;;;3.83;2.13;;;9.40;82.70;;;;;;5009892;28;20030;-80
2021/11/17 07:26:33;;;;;;;5.32;2.42;;;9.50;82.90;;;;;;5010423;28;20029;-84
2021/11/17 07:28:59;;;;;;;4.55;3.33;;;9.40;82.80;;;;;;5011081;28;20040;-82
2021/11/17 07:31:27;;;;;;;5.95;2.78;;;9.40;82.80;;;;;;5010374;28;20044;-86
2021/11/17 07:33:54;;;;;;;7.22;2.85;;;9.40;82.90;;;;;;5009683;28;20064;-83
2021/11/17 07:36:21;;;;;;;5.07;2.70;;;9.40;82.90;;;;;;4992356;28;20453;-83
2021/11/17 07:38:48;;;;;;;8.25;2.80;;;9.30;82.70;;;;;;5009750;28;20081;-83
2021/11/17 07:41:14;;;;;;;4.60;2.50;;;9.40;82.90;;;;;;5009931;28;20018;-84
2021/11/17 07:43:40;;;;;;;4.47;2.47;;;9.40;82.90;;;;;;4992355;28;20497;-83
2021/11/17 07:46:06;;;;;;;7.60;2.17;;;9.40;82.90;;;;;;5007685;28;20405;-84
2021/11/17 07:48:32;;;;;;;3.42;2.22;;;9.40;82.80;;;;;;4989361;28;20034;-81
2021/11/17 07:51:00;;;;;;;4.40;2.45;;;9.30;83.20;;;;;;5009322;28;20084;-80
2021/11/17 07:53:28;;;;;;;6.28;2.10;;;9.30;82.60;;;;;;5008432;28;20030;-83
2021/11/17 07:55:56;;;;;;;5.53;2.47;;;9.30;82.60;;;;;;5008237;28;20057;-83
2021/11/17 07:58:25;;;;;;;5.47;3.28;;;9.30;82.60;;;;;;4969214;28;20034;-84
2021/11/17 08:00:55;;;;;;;3.65;2.10;;;9.30;82.70;;;;;;4972837;28;20553;-86
2021/11/17 08:03:24;;;;;;;6.70;2.50;;;9.30;82.60;;;;;;4985808;28;20034;-87
2021/11/17 08:05:52;;;;;;;3.42;2.10;;;9.30;82.60;;;;;;4975935;28;20030;-86
2021/11/17 08:08:20;;;;;;;3.45;2.08;;;9.30;82.60;;;;;;4972226;28;20552;-84
2021/11/17 08:10:47;;;;;;;7.38;3.17;;;9.30;82.60;;;;;;4990127;28;20062;-84
2021/11/17 08:13:13;;;;;;;4.60;2.35;;;9.30;82.60;;;;;;4988203;28;20034;-85
2021/11/17 08:15:40;;;;;;;4.97;2.60;;;9.30;82.60;;;;;;4990142;28;20022;-86
2021/11/17 08:18:06;;;;;;;7.05;2.58;;;9.30;82.60;;;;;;4996375;28;20095;-83
2021/11/17 08:20:33;;;;;;;7.43;2.92;;;9.30;82.60;;;;;;4991370;28;20045;-84
2021/11/17 08:22:59;;;;;;;5.28;2.50;;;9.30;82.50;;;;;;5007873;28;20037;-85
2021/11/17 08:25:31;;;;;;;3.78;2.15;;;9.30;82.50;;;;;;5009154;28;20034;-83
2021/11/17 08:27:58;;;;;;;4.25;2.42;;;9.30;82.50;;;;;;4991533;28;20034;-82
2021/11/17 08:30:28;;;;;;;3.03;2.15;;;9.30;82.50;;;;;;5009494;28;20042;-82
2021/11/17 08:32:54;;;;;;;5.47;2.50;;;9.30;82.50;;;;;;5007644;28;20026;-84
2021/11/17 08:35:23;;;;;;;4.75;2.22;;;9.30;82.50;;;;;;5008914;28;20389;-82
2021/11/17 08:37:53;;;;;;;5.45;2.80;;;9.40;82.60;;;;;;5008622;28;20567;-81
2021/11/17 08:40:28;;;;;;;4.82;2.17;;;9.30;82.40;;;;;;4990960;28;20037;-81
2021/11/17 08:42:55;;;;;;;3.08;2.05;;;9.30;82.40;;;;;;5008773;28;20084;-81
2021/11/17 08:45:22;;;;;;;5.20;2.10;;;9.40;82.50;;;;;;5008792;28;20045;-83
2021/11/17 08:47:50;;;;;;;8.38;2.55;;;9.30;82.30;;;;;;4990999;28;20085;-84
2021/11/17 08:50:20;;;;;;;4.10;2.80;;;9.40;82.40;;;;;;4975327;28;20417;-86
2021/11/17 08:52:47;;;;;;;6.07;2.83;;;9.40;82.40;;;;;;4991018;28;20026;-84
2021/11/17 08:55:15;;;;;;;4.00;2.55;;;9.40;82.40;;;;;;5008744;28;20506;-85
2021/11/17 08:57:47;;;;;;;5.38;2.40;;;9.40;82.40;;;;;;4991102;28;20389;-84
2021/11/17 09:00:19;;;;;;;4.50;2.38;;;9.40;82.40;;;;;;4990666;28;20389;-82
2021/11/17 09:02:46;;;;;;;4.28;2.55;;;9.40;82.40;;;;;;4990167;28;20374;-80
2021/11/17 09:05:18;;;;;;;3.00;2.15;;;9.40;82.30;;;;;;4990227;28;20524;-80
2021/11/17 09:07:46;;;;;;;3.78;2.00;;;9.40;82.30;;;;;;5004670;28;20502;-82
2021/11/17 09:10:18;;;;;;;9.38;3.83;;;9.40;82.30;;;;;;4971356;28;20035;-83
2021/11/17 09:12:46;;;;;;;7.50;2.30;;;9.40;82.30;;;;;;4996126;28;20392;-81
2021/11/17 09:15:13;;;;;;;4.78;3.08;;;9.40;82.30;;;;;;4990892;28;20049;-85
2021/11/17 09:17:43;;;;;;;7.97;2.63;;;9.40;82.30;;;;;;5007654;28;20427;-83
2021/11/17 09:20:11;;;;;;;6.47;3.00;;;9.40;82.30;;;;;;5008243;28;20037;-82
2021/11/17 09:22:38;;;;;;;6.13;3.20;;;9.40;82.30;;;;;;5007240;28;20037;-82
2021/11/17 09:25:07;;;;;;;5.35;2.35;;;9.50;82.50;;;;;;5007200;28;20412;-80
2021/11/17 09:27:33;;;;;;;4.80;2.58;;;9.50;82.50;;;;;;5005505;28;20500;-82
2021/11/17 09:30:00;;;;;;;3.70;2.25;;;9.50;82.50;;;;;;4988609;28;20096;-79
2021/11/17 09:32:26;;;;;;;4.93;2.45;;;9.60;82.70;;;;;;4987575;28;20038;-81
2021/11/17 09:34:53;;;;;;;4.93;2.55;;;9.60;82.70;;;;;;4988338;28;20274;-83
2021/11/17 09:37:23;;;;;;;4.93;2.28;;;9.70;82.80;;;;;;4970316;28;20034;-81
2021/11/17 09:39:52;;;;;;;6.90;3.40;;;9.80;83.00;;;;;;4987916;28;20536;-82
2021/11/17 09:42:20;;;;;;;4.05;2.92;;;9.80;82.90;;;;;;4991971;28;20516;-81
2021/11/17 09:44:46;;;;;;;4.72;2.67;;;9.90;83.10;;;;;;5006342;28;20026;-82
2021/11/17 09:47:15;;;;;;;4.07;3.08;;;9.90;83.00;;;;;;5008000;28;20464;-83
2021/11/17 09:50:19;;;;;;;6.00;2.90;;;10.00;83.20;;;;;;5007286;28;20037;-83
2021/11/17 09:52:57;;;;;;;5.60;3.00;;;10.10;83.30;;;;;;5006501;28;20037;-82
2021/11/17 09:55:37;;;;;;;4.57;2.58;;;10.20;83.40;;;;;;5007199;28;20224;-82
2021/11/17 09:58:13;;;;;;;4.85;2.88;;;10.20;83.30;;;;;;4989526;28;20176;-82
2021/11/17 10:00:48;;;;;;;7.68;3.30;;;10.30;83.50;;;;;;4989531;28;20026;-80
2021/11/17 10:03:26;;;;;;;5.70;2.50;;;10.40;83.60;;;;;;5006969;28;20177;-82
2021/11/17 10:06:24;;;;;;;5.18;2.67;;;10.40;83.50;;;;;;5007430;28;20485;-79
2021/11/17 10:14:57;;;;;;;6.47;2.33;;;10.60;83.80;;;;;;4987958;28;20497;-82
2021/11/17 10:17:49;;;;;;;6.30;3.30;;;10.70;83.90;;;;;;4987965;28;20041;-83
2021/11/17 10:20:34;;;;;;;7.13;2.92;;;10.80;84.10;;;;;;5007206;28;20041;-82
2021/11/17 10:23:27;;;;;;;7.25;2.75;;;10.90;84.20;;;;;;4988400;28;20040;-83
2021/11/17 10:26:04;;;;;;;8.70;3.13;;;10.90;84.20;;;;;;4950900;28;20038;-81
2021/11/17 10:28:30;;;;;;;6.93;2.88;;;11.00;84.30;;;;;;4996253;28;20033;-82
2021/11/17 10:31:09;;;;;;;6.88;2.97;;;11.10;84.40;;;;;;5006689;28;20042;-80
2021/11/17 10:34:20;;;;;;;7.50;3.03;;;11.20;84.60;;;;;;5006462;28;20026;-79
2021/11/17 10:37:18;;;;;;;8.48;2.88;;;11.20;84.60;;;;;;5006617;28;20124;-84
2021/11/17 10:39:47;;;;;;;7.80;3.00;;;11.30;84.70;;;;;;4985030;28;20048;-86
2021/11/17 10:42:37;;;;;;;7.35;3.63;;;11.40;84.80;;;;;;4989155;28;20846;-83
2021/11/17 10:45:24;;;;;;;9.65;2.97;;;11.40;84.90;;;;;;4982561;28;20048;-80
2021/11/17 10:47:51;;;;;;;6.25;2.60;;;11.50;85.00;;;;;;4999328;28;20050;-83
2021/11/17 10:50:38;;;;;;;7.47;3.03;;;11.50;84.90;;;;;;4985672;28;20053;-86
2021/11/17 10:53:25;;;;;;;8.00;2.88;;;11.50;84.90;;;;;;4996053;28;20038;-83
2021/11/17 10:55:54;;;;;;;7.80;3.85;;;11.50;84.90;;;;;;5006350;28;20240;-82
2021/11/17 10:58:32;;;;;;;8.43;2.90;;;11.60;85.10;;;;;;5010415;28;20038;-85
2021/11/17 11:01:14;;;;;;;6.07;2.42;;;11.60;85.10;;;;;;5010757;28;20053;-83
2021/11/17 11:03:50;;;;;;;9.10;2.77;;;11.60;85.10;;;;;;5010143;28;20040;-83
2021/11/17 11:06:24;;;;;;;10.88;2.80;;;11.70;85.20;;;;;;4992554;28;20270;-88
2021/11/17 11:08:59;;;;;;;10.75;2.70;;;11.70;85.20;;;;;;4992841;28;20558;-81
2021/11/17 11:11:26;;;;;;;8.00;3.17;;;11.80;85.30;;;;;;5010295;28;20037;-82
2021/11/17 11:13:57;;;;;;;8.40;3.03;;;11.80;85.30;;;;;;4992356;28;20026;-82
2021/11/17 11:16:46;;;;;;;10.68;3.03;;;11.80;85.30;;;;;;5009505;28;20041;-79
2021/11/17 11:19:13;;;;;;;7.95;3.13;;;11.80;85.30;;;;;;5009536;28;20045;-78
2021/11/17 11:21:41;;;;;;;9.55;4.22;;;11.70;85.10;;;;;;4992323;28;20041;-80
2021/11/17 11:24:26;;;;;;;6.32;2.47;;;11.80;85.30;;;;;;5009305;28;20512;-80
2021/11/17 11:26:58;;;;;;;7.78;3.47;;;11.80;85.30;;;;;;5009730;28;20121;-80
2021/11/17 11:29:29;;;;;;;9.23;3.17;;;11.90;85.50;;;;;;5009856;28;20453;-82
2021/11/17 11:32:01;;;;;;;9.45;2.72;;;11.90;85.40;;;;;;5009354;28;20107;-79
2021/11/17 11:34:44;;;;;;;7.20;2.53;;;12.00;85.60;;;;;;5009761;28;20261;-82
2021/11/17 11:37:31;;;;;;;9.88;2.78;;;12.00;85.50;;;;;;4975720;28;20588;-85
2021/11/17 11:40:01;;;;;;;9.60;3.67;;;12.00;85.40;;;;;;4959915;28;20169;-78
2021/11/17 11:42:53;;;;;;;8.27;2.83;;;12.00;85.30;;;;;;4992031;28;20092;-74
2021/11/17 11:45:25;;;;;;;13.80;3.75;;;12.10;85.50;;;;;;4992964;28;20037;-82
2021/11/17 11:48:07;;;;;;;20.07;4.23;;;12.10;85.70;;;;;;5009919;28;20081;-79
2021/11/17 11:50:33;;;;;;;13.52;3.10;;;12.10;86.00;;;;;;5003476;28;20160;-84
2021/11/17 11:53:02;;;;;;;14.40;3.15;;;12.10;86.00;;;;;;4990265;28;20030;-84
2021/11/17 11:55:53;;;;;;;13.77;4.88;;;12.20;86.20;;;;;;4972281;28;20036;-80
2021/11/17 11:58:24;;;;;;;13.45;3.53;;;12.20;86.30;;;;;;4996947;28;20145;-85
2021/11/17 12:01:00;;;;;;;11.95;2.95;;;12.20;86.10;;;;;;5009638;28;20030;-84
2021/11/17 12:03:28;;;;;;;9.85;3.35;;;12.20;86.10;;;;;;4991325;28;20541;-83
2021/11/17 12:06:04;;;;;;;11.00;3.70;;;12.20;86.10;;;;;;5008991;28;20560;-84
2021/11/17 12:08:48;;;;;;;10.55;2.60;;;12.20;86.00;;;;;;4981906;28;20104;-81
2021/11/17 12:11:18;;;;;;;8.90;2.92;;;12.20;86.00;;;;;;4990000;28;20022;-84
2021/11/17 12:14:06;;;;;;;10.00;3.13;;;12.30;86.20;;;;;;4989022;28;20031;-80
2021/11/17 12:16:45;;;;;;;5.95;2.20;;;12.20;86.00;;;;;;4989000;28;20027;-82
2021/11/17 12:19:25;;;;;;;9.93;3.80;;;12.20;86.00;;;;;;5003672;28;20050;-81
2021/11/17 12:21:55;;;;;;;12.57;3.33;;;12.20;85.90;;;;;;4991890;28;20034;-82
2021/11/17 12:24:25;;;;;;;10.52;3.67;;;12.20;85.90;;;;;;5008965;28;20034;-83
2021/11/17 12:27:04;;;;;;;10.43;3.38;;;12.20;85.90;;;;;;5009373;28;20045;-82
2021/11/17 12:29:47;;;;;;;9.13;2.75;;;12.20;85.90;;;;;;5008816;28;20495;-83
2021/11/17 12:32:22;;;;;;;13.45;3.83;;;12.20;85.90;;;;;;4991058;28;20026;-82
2021/11/17 12:35:02;;;;;;;12.13;3.80;;;12.20;85.90;;;;;;5009180;28;20100;-82
2021/11/17 12:37:31;;;;;;;9.10;2.38;;;12.20;85.80;;;;;;5008716;28;20046;-82
2021/11/17 12:40:06;;;;;;;9.45;3.15;;;12.10;85.70;;;;;;4990383;28;20516;-83
2021/11/17 12:42:36;;;;;;;8.50;3.15;;;12.20;85.80;;;;;;4990843;28;20036;-85
2021/11/17 12:45:20;;;;;;;13.45;3.50;;;12.20;85.80;;;;;;4990662;28;20080;-83
2021/11/17 12:47:54;;;;;;;14.32;3.60;;;12.20;85.80;;;;;;5008371;28;20073;-81
2021/11/17 12:50:46;;;;;;;11.07;4.25;;;12.20;85.70;;;;;;4991439;28;20069;-80
2021/11/17 12:53:28;;;;;;;11.48;3.65;;;12.30;85.90;;;;;;4990555;28;20034;-84
2021/11/17 12:56:04;;;;;;;13.82;3.38;;;12.30;85.80;;;;;;4990352;28;20499;-79
2021/11/17 12:58:35;;;;;;;9.73;2.90;;;12.40;85.90;;;;;;5007714;28;20056;-80
2021/11/17 13:01:10;;;;;;;8.80;3.15;;;12.40;85.80;;;;;;5007961;28;20045;-80
2021/11/17 13:03:48;;;;;;;9.30;3.50;;;12.40;85.70;;;;;;5007584;28;20037;-81
2021/11/17 13:06:28;;;;;;;7.47;3.10;;;12.40;85.70;;;;;;5007877;28;20056;-81
2021/11/17 13:09:11;;;;;;;9.23;3.40;;;12.40;85.60;;;;;;4974342;28;20378;-80
2021/11/17 13:11:51;;;;;;;17.33;4.80;;;12.40;85.70;;;;;;5008141;28;20037;-83
2021/11/17 13:14:36;;;;;;;9.60;3.42;;;12.40;85.60;;;;;;5007406;28;20225;-83
2021/11/17 13:17:16;;;;;;;12.85;4.35;;;12.40;85.60;;;;;;5007981;28;20136;-89
2021/11/17 13:19:46;;;;;;;9.85;3.60;;;12.40;85.60;;;;;;5001447;28;20042;-85
2021/11/17 13:22:26;;;;;;;7.90;3.28;;;12.40;85.50;;;;;;4990254;28;20065;-85
2021/11/17 13:25:15;;;;;;;12.43;3.67;;;12.40;85.50;;;;;;5007944;28;20042;-82
2021/11/17 13:27:45;;;;;;;12.15;3.53;;;12.50;85.60;;;;;;4968529;28;20446;-83
2021/11/17 13:30:27;;;;;;;14.10;2.83;;;12.50;85.50;;;;;;5006715;28;20116;-83
2021/11/17 13:32:53;;;;;;;7.77;2.70;;;12.50;85.40;;;;;;4982370;28;20122;-86
2021/11/17 13:35:27;;;;;;;9.25;3.13;;;12.50;85.40;;;;;;4971526;28;20026;-82
2021/11/17 13:38:14;;;;;;;9.73;3.72;;;12.50;85.30;;;;;;5007406;28;20034;-82
2021/11/17 13:40:42;;;;;;;12.27;3.65;;;12.50;85.30;;;;;;5005962;28;20060;-84
2021/11/17 13:43:12;;;;;;;11.65;3.30;;;12.50;85.20;;;;;;4969519;28;20109;-82
2021/11/17 13:45:40;;;;;;;13.02;3.95;;;12.50;85.20;;;;;;4970248;28;20038;-85
2021/11/17 13:48:07;;;;;;;10.52;3.63;;;12.50;85.20;;;;;;4993026;28;20046;-84
2021/11/17 13:50:38;;;;;;;9.60;3.55;;;12.60;85.30;;;;;;5007780;28;20132;-83
2021/11/17 13:53:07;;;;;;;7.97;3.30;;;12.60;85.30;;;;;;4989613;28;20030;-86
2021/11/17 13:55:36;;;;;;;8.23;2.83;;;12.50;85.00;;;;;;4989325;28;20034;-83
2021/11/17 13:58:05;;;;;;;8.90;3.08;;;12.60;85.20;;;;;;5007188;28;20042;-83
2021/11/17 14:00:31;;;;;;;10.30;3.13;;;12.60;85.20;;;;;;5007990;28;20352;-86
2021/11/17 14:02:59;;;;;;;10.25;3.20;;;12.60;85.10;;;;;;5007302;28;20022;-83
2021/11/17 14:05:25;;;;;;;16.85;6.38;;;12.60;85.10;;;;;;5007546;28;20088;-82
2021/11/17 14:07:52;;;;;;;8.05;3.35;;;12.60;85.00;;;;;;4989736;28;20038;-81
2021/11/17 14:10:21;;;;;;;9.55;2.65;;;12.60;85.00;;;;;;5006971;28;20029;-81
2021/11/17 14:12:49;;;;;;;10.07;3.17;;;12.60;85.00;;;;;;5003420;28;20030;-83
2021/11/17 14:15:16;;;;;;;11.80;3.95;;;12.60;85.00;;;;;;4997484;28;20054;-83
2021/11/17 14:17:42;;;;;;;8.85;3.72;;;12.70;85.10;;;;;;4988545;28;20034;-82
2021/11/17 14:20:10;;;;;;;6.45;2.55;;;12.70;85.10;;;;;;5007402;28;20498;-85
2021/11/17 14:22:36;;;;;;;7.13;2.50;;;12.70;85.00;;;;;;4990696;28;20033;-83
2021/11/17 14:25:08;;;;;;;14.35;4.78;;;12.80;85.20;;;;;;4989749;28;20034;-83
2021/11/17 14:27:40;;;;;;;8.65;3.00;;;12.80;85.20;;;;;;4988769;28;20037;-84
2021/11/17 14:30:12;;;;;;;9.30;2.80;;;12.80;85.10;;;;;;5006860;28;20034;-86
2021/11/17 14:32:46;;;;;;;12.65;3.38;;;12.80;85.20;;;;;;4989085;28;20037;-85
2021/11/17 14:35:13;;;;;;;11.82;3.13;;;12.90;85.30;;;;;;5006992;28;20029;-84
2021/11/17 14:37:42;;;;;;;7.95;3.33;;;12.90;85.20;;;;;;5005312;28;20115;-82
2021/11/17 14:40:10;;;;;;;8.20;2.53;;;12.90;85.10;;;;;;4969456;28;20042;-83
2021/11/17 14:42:36;;;;;;;10.55;3.33;;;13.00;85.30;;;;;;4987003;28;20482;-82
2021/11/17 14:45:06;;;;;;;7.97;3.67;;;13.00;85.20;;;;;;4987077;28;20026;-82
2021/11/17 14:47:32;;;;;;;10.93;3.90;;;13.00;85.10;;;;;;5002592;28;20046;-82
2021/11/17 14:49:58;;;;;;;10.10;3.88;;;13.10;85.30;;;;;;4988627;28;20429;-81
2021/11/17 14:52:24;;;;;;;9.65;2.95;;;13.00;85.10;;;;;;5009786;28;20053;-82
2021/11/17 14:54:51;;;;;;;6.15;3.00;;;13.10;85.20;;;;;;5026233;28;20074;-84
2021/11/17 14:57:18;;;;;;;9.60;2.80;;;13.10;85.20;;;;;;5025839;28;20033;-82
2021/11/17 14:59:44;;;;;;;9.00;2.92;;;13.10;85.10;;;;;;5026333;28;20038;-83
2021/11/17 15:02:11;;;;;;;10.18;2.95;;;13.10;85.10;;;;;;5026208;28;20068;-86
2021/11/17 15:04:37;;;;;;;10.55;4.35;;;13.10;85.10;;;;;;5026036;28;20037;-84
2021/11/17 15:07:10;;;;;;;7.80;3.13;;;13.10;85.10;;;;;;5002929;28;20026;-86
2021/11/17 15:09:37;;;;;;;13.60;4.05;;;13.10;85.10;;;;;;5019705;28;20061;-94
2021/11/17 15:12:28;;;;;;;8.50;3.05;;;13.10;85.10;;;;;;5013113;28;20036;-92
2021/11/17 15:14:54;;;;;;;9.98;2.72;;;13.10;85.10;;;;;;5027900;28;20083;-87
2021/11/17 15:17:20;;;;;;;8.68;2.90;;;13.10;85.10;;;;;;4992969;28;20026;-82
2021/11/17 15:19:46;;;;;;;10.18;3.83;;;13.10;85.10;;;;;;5025423;28;20037;-82
2021/11/17 15:22:12;;;;;;;6.97;2.50;;;13.10;85.10;;;;;;5025845;28;20026;-80
2021/11/17 15:24:39;;;;;;;8.88;3.13;;;13.10;85.10;;;;;;5026289;28;20116;-78
2021/11/17 15:27:33;;;;;;;26.70;3.88;;;13.10;85.00;;;;;;5008126;28;20021;-83
2021/11/17 15:30:00;;;;;;;12.68;4.03;;;13.00;84.80;;;;;;5025886;28;20060;-80
2021/11/17 15:32:27;;;;;;;8.27;2.92;;;13.10;85.00;;;;;;5004744;28;20037;-77
2021/11/17 15:34:53;;;;;;;6.50;3.03;;;13.10;84.90;;;;;;5006460;28;20500;-82
2021/11/17 15:37:19;;;;;;;7.13;2.90;;;13.00;84.70;;;;;;5006134;28;20030;-78
2021/11/17 15:39:45;;;;;;;9.52;3.30;;;13.00;84.60;;;;;;4988592;28;20046;-83
2021/11/17 15:42:11;;;;;;;7.43;3.25;;;13.00;84.60;;;;;;5006064;28;20084;-81
2021/11/17 15:44:37;;;;;;;8.50;2.63;;;13.00;84.60;;;;;;5008467;28;20103;-77
2021/11/17 15:47:06;;;;;;;9.95;4.13;;;12.90;84.40;;;;;;5009272;28;20045;-80
2021/11/17 15:49:33;;;;;;;8.52;2.38;;;12.90;84.40;;;;;;4993057;28;20042;-79
2021/11/17 15:52:00;;;;;;;10.35;2.47;;;12.90;84.40;;;;;;4983995;28;20034;-79
2021/11/17 15:54:26;;;;;;;13.05;4.88;;;12.90;84.40;;;;;;5009830;28;20030;-81
2021/11/17 15:56:53;;;;;;;7.85;3.00;;;12.90;84.40;;;;;;5008799;28;20068;-77
2021/11/17 15:59:20;;;;;;;5.75;3.03;;;12.80;84.30;;;;;;4991338;28;20045;-79
2021/11/17 16:01:48;;;;;;;7.82;2.15;;;12.80;84.30;;;;;;5008119;28;20456;-83
2021/11/17 16:04:15;;;;;;;9.50;2.85;;;12.70;84.10;;;;;;4991613;28;20030;-80